Time;durP1;ratioP1;P1;durP2;ratioP2;P2;SDS_P1;SDS_P2;PMS_P1;PMS_P2;Temp;Humidity;BMP_temperature;BMP_pressure;BME280_temperature;BME280_humidity;BME280_pressure;Samples;Min_cycle;Max_cycle;Signal;HPM_P1;HPM_P2
2024/03/10 05:30:04;;;;;;;0.20;0.20;;;4.50;91.20;;;;;;5962668;23;20020;31
2024/03/10 05:32:30;;;;;;;0.20;0.20;;;4.50;90.90;;;;;;4831006;29;20077;-73
2024/03/10 05:34:56;;;;;;;0.10;0.10;;;4.50;91.30;;;;;;4841740;29;20072;-73
2024/03/10 05:37:25;;;;;;;0.10;0.10;;;4.50;91.30;;;;;;4837676;29;20533;-73
2024/03/10 05:39:51;;;;;;;0.10;0.10;;;4.60;91.30;;;;;;4853403;29;20033;-73
2024/03/10 05:42:16;;;;;;;0.10;0.10;;;4.60;91.20;;;;;;4845772;29;20022;-73
2024/03/10 05:44:42;;;;;;;0.10;0.10;;;4.60;90.70;;;;;;4845810;29;20033;-73
2024/03/10 05:47:08;;;;;;;0.10;0.10;;;4.40;90.60;;;;;;4845737;29;20067;-73
2024/03/10 05:49:34;;;;;;;0.10;0.10;;;4.40;91.00;;;;;;4845933;29;20101;-73
2024/03/10 05:52:00;;;;;;;0.10;0.10;;;4.50;91.20;;;;;;4825909;29;20069;-73
2024/03/10 05:54:26;;;;;;;0.10;0.10;;;4.40;90.70;;;;;;4842577;29;20058;-73
2024/03/10 05:56:51;;;;;;;0.13;0.13;;;4.30;90.30;;;;;;4844345;29;20117;-73
2024/03/10 05:59:17;;;;;;;0.10;0.10;;;4.30;90.50;;;;;;4844851;29;20058;-74
2024/03/10 06:01:45;;;;;;;0.10;0.10;;;4.20;90.20;;;;;;4845024;29;20034;-73
2024/03/10 06:04:11;;;;;;;0.10;0.10;;;4.20;89.90;;;;;;4845317;29;20022;-73
2024/03/10 06:06:38;;;;;;;0.10;0.10;;;4.10;89.30;;;;;;4844930;29;20034;-73
2024/03/10 06:09:05;;;;;;;0.13;0.13;;;4.00;89.40;;;;;;4845570;29;20026;-73
2024/03/10 06:11:32;;;;;;;0.20;0.20;;;4.00;89.60;;;;;;4845477;29;20029;-73
2024/03/10 06:13:58;;;;;;;0.10;0.10;;;3.90;89.60;;;;;;4844787;29;20085;-73
2024/03/10 06:16:24;;;;;;;0.20;0.20;;;4.00;90.10;;;;;;4844416;29;20072;-73
2024/03/10 06:26:51;;;;;;;0.10;0.10;;;4.10;90.30;;;;;;4827723;29;20061;-73
2024/03/10 06:29:18;;;;;;;0.10;0.10;;;4.10;90.60;;;;;;4827020;29;20023;-73
2024/03/10 06:31:43;;;;;;;0.10;0.10;;;4.10;90.50;;;;;;4852555;29;20061;-73
2024/03/10 06:34:10;;;;;;;0.10;0.10;;;4.20;90.80;;;;;;4844648;29;20041;-73
2024/03/10 06:36:36;;;;;;;0.20;0.20;;;4.20;90.80;;;;;;4845381;29;20505;-73
2024/03/10 06:39:03;;;;;;;0.20;0.20;;;4.30;90.70;;;;;;4845363;29;20047;-74
2024/03/10 06:41:29;;;;;;;0.20;0.20;;;4.30;90.00;;;;;;4845203;29;20034;-73
2024/03/10 06:43:55;;;;;;;0.10;0.10;;;4.20;89.80;;;;;;4844438;29;20038;-73
2024/03/10 06:46:21;;;;;;;0.20;0.20;;;4.30;90.60;;;;;;4844873;29;20038;-73
2024/03/10 06:48:46;;;;;;;0.20;0.20;;;4.30;90.30;;;;;;4846726;29;20022;-73
2024/03/10 06:51:12;;;;;;;0.10;0.10;;;4.30;89.80;;;;;;4848848;29;20038;-74
2024/03/10 06:53:38;;;;;;;0.10;0.10;;;4.50;90.30;;;;;;4848920;29;20030;-74
2024/03/10 06:56:04;;;;;;;0.13;0.13;;;4.50;89.50;;;;;;4847458;29;20034;-73
2024/03/10 06:58:30;;;;;;;0.10;0.10;;;4.40;89.60;;;;;;4848805;29;20034;-74
2024/03/10 07:00:57;;;;;;;0.10;0.10;;;4.50;89.40;;;;;;4848824;29;20086;-73
2024/03/10 07:03:23;;;;;;;0.20;0.20;;;4.40;89.30;;;;;;4848330;29;20077;-73
2024/03/10 07:05:49;;;;;;;0.10;0.10;;;4.40;88.90;;;;;;4848494;29;20456;-74
2024/03/10 07:08:15;;;;;;;0.10;0.10;;;4.30;88.80;;;;;;4847542;29;20026;-73
2024/03/10 07:10:44;;;;;;;0.17;0.17;;;4.30;88.60;;;;;;4848484;29;20446;-74
2024/03/10 07:13:09;;;;;;;0.10;0.10;;;4.20;88.70;;;;;;4847758;29;20034;-73
2024/03/10 07:15:35;;;;;;;0.10;0.10;;;4.20;88.60;;;;;;4844156;29;20033;-73
2024/03/10 07:18:00;;;;;;;0.10;0.10;;;4.10;88.50;;;;;;4839776;29;20090;-73
2024/03/10 07:20:26;;;;;;;0.10;0.10;;;4.20;89.20;;;;;;4844245;29;20038;-74
2024/03/10 07:22:53;;;;;;;0.10;0.10;;;4.20;89.20;;;;;;4848011;29;20030;-74
2024/03/10 07:25:19;;;;;;;0.20;0.20;;;4.20;88.90;;;;;;4848212;29;20037;-74
2024/03/10 07:27:45;;;;;;;0.10;0.10;;;4.20;89.00;;;;;;4847868;29;20030;-74
2024/03/10 07:30:12;;;;;;;0.10;0.10;;;4.20;88.90;;;;;;4863007;29;20488;-74
2024/03/10 07:32:38;;;;;;;0.10;0.10;;;4.30;89.00;;;;;;4866063;29;20118;-73
2024/03/10 07:35:04;;;;;;;0.10;0.10;;;4.30;89.20;;;;;;4841662;29;20061;-73
2024/03/10 07:37:30;;;;;;;0.10;0.10;;;4.40;89.40;;;;;;4858538;29;20040;-73
2024/03/10 07:39:56;;;;;;;0.15;0.15;;;4.40;89.30;;;;;;4866454;29;20030;-73
2024/03/10 07:42:22;;;;;;;0.20;0.20;;;4.50;89.40;;;;;;4862902;29;20026;-74
2024/03/10 07:44:47;;;;;;;0.17;0.17;;;4.50;89.10;;;;;;4848001;29;20034;-73
2024/03/10 07:47:13;;;;;;;0.10;0.10;;;4.40;89.10;;;;;;4859300;29;20025;-74
2024/03/10 07:49:39;;;;;;;0.20;0.20;;;4.40;88.80;;;;;;4864771;29;20156;-75
2024/03/10 07:52:05;;;;;;;0.10;0.10;;;4.40;89.10;;;;;;4865069;29;20026;-74
2024/03/10 07:54:34;;;;;;;0.10;0.10;;;4.40;89.30;;;;;;4865606;29;20037;-73
2024/03/10 07:56:59;;;;;;;0.10;0.10;;;4.50;89.60;;;;;;4862624;29;20074;-75
2024/03/10 07:59:25;;;;;;;0.20;0.20;;;4.50;89.40;;;;;;4863973;29;20033;-75
2024/03/10 08:01:51;;;;;;;0.20;0.20;;;4.60;89.20;;;;;;4865232;29;20026;-74
2024/03/10 08:04:20;;;;;;;0.10;0.10;;;4.60;89.10;;;;;;4858674;29;20076;-73
2024/03/10 08:06:46;;;;;;;0.20;0.20;;;4.60;89.00;;;;;;4849160;29;20030;-74
2024/03/10 08:09:15;;;;;;;0.20;0.20;;;4.60;89.20;;;;;;4865576;29;20455;-74
2024/03/10 08:11:45;;;;;;;0.17;0.17;;;4.60;89.20;;;;;;4864992;29;20162;-74
2024/03/10 08:14:10;;;;;;;0.15;0.15;;;4.70;89.00;;;;;;4866003;29;20510;-74
2024/03/10 08:16:37;;;;;;;0.20;0.20;;;4.80;88.90;;;;;;4862569;29;20086;-74
2024/03/10 08:19:03;;;;;;;0.32;0.30;;;4.70;88.50;;;;;;4857169;29;20048;-74
2024/03/10 08:21:29;;;;;;;0.20;0.20;;;4.80;88.70;;;;;;4850513;29;20026;-75
2024/03/10 08:23:55;;;;;;;0.30;0.30;;;4.90;88.50;;;;;;4864430;29;20049;-74
2024/03/10 08:26:20;;;;;;;0.20;0.20;;;5.00;88.60;;;;;;4851216;29;20026;-74
2024/03/10 08:28:47;;;;;;;0.20;0.20;;;5.00;88.10;;;;;;4862477;29;20093;-74
2024/03/10 08:31:13;;;;;;;0.20;0.20;;;5.00;88.10;;;;;;4861304;29;20101;-77
2024/03/10 08:33:39;;;;;;;0.20;0.20;;;5.20;88.20;;;;;;4862534;29;20124;-76
2024/03/10 08:36:05;;;;;;;0.28;0.28;;;5.30;87.80;;;;;;4863550;29;20241;-76
2024/03/10 08:38:30;;;;;;;0.20;0.20;;;5.30;88.20;;;;;;4864970;29;20042;-76
2024/03/10 08:40:56;;;;;;;0.10;0.10;;;5.30;88.20;;;;;;4861776;29;20025;-76
2024/03/10 08:43:23;;;;;;;0.20;0.20;;;5.40;88.90;;;;;;4859959;29;20460;-76
2024/03/10 08:45:49;;;;;;;0.20;0.20;;;5.50;88.30;;;;;;4863146;29;20036;-76
2024/03/10 08:48:15;;;;;;;0.20;0.20;;;5.60;88.10;;;;;;4857938;29;20505;-76
2024/03/10 08:50:42;;;;;;;0.20;0.20;;;5.50;87.80;;;;;;4863030;29;20034;-76
2024/03/10 08:53:08;;;;;;;0.20;0.20;;;5.50;88.20;;;;;;4864484;29;20041;-77
2024/03/10 08:55:35;;;;;;;0.17;0.17;;;5.60;88.60;;;;;;4865009;29;20030;-76
2024/03/10 08:58:01;;;;;;;0.20;0.20;;;5.80;88.90;;;;;;4867713;29;20478;-76
2024/03/10 09:00:26;;;;;;;0.10;0.10;;;5.80;88.40;;;;;;4863751;29;20068;-75
2024/03/10 09:02:53;;;;;;;0.20;0.20;;;5.90;88.10;;;;;;4858284;29;20060;-76
2024/03/10 09:05:18;;;;;;;0.20;0.20;;;5.90;88.10;;;;;;4862645;29;20113;-76
2024/03/10 09:07:44;;;;;;;0.17;0.17;;;5.90;88.40;;;;;;4856175;29;20100;-76
2024/03/10 09:10:10;;;;;;;0.20;0.20;;;6.00;88.40;;;;;;4858791;29;20029;-77
2024/03/10 09:12:36;;;;;;;0.10;0.10;;;5.90;88.40;;;;;;4862172;29;20405;-77
2024/03/10 09:15:02;;;;;;;0.20;0.20;;;5.90;88.60;;;;;;4859334;29;20116;-78
2024/03/10 09:17:29;;;;;;;0.20;0.20;;;5.90;88.30;;;;;;4862841;29;20090;-76
2024/03/10 09:19:55;;;;;;;0.20;0.20;;;6.00;88.50;;;;;;4860434;29;20034;-74
2024/03/10 09:22:20;;;;;;;0.20;0.20;;;6.10;88.80;;;;;;4860965;29;20557;-74
2024/03/10 09:24:48;;;;;;;0.10;0.10;;;6.20;88.30;;;;;;4860855;29;20129;-74
2024/03/10 09:27:14;;;;;;;0.20;0.20;;;6.40;88.90;;;;;;4843813;29;20045;-74
2024/03/10 09:29:40;;;;;;;0.17;0.17;;;6.60;88.40;;;;;;4840374;29;20025;-74
2024/03/10 09:32:06;;;;;;;0.15;0.15;;;6.60;88.00;;;;;;4863169;29;20041;-74
2024/03/10 09:34:32;;;;;;;0.20;0.20;;;6.60;88.20;;;;;;4860496;29;20025;-75
2024/03/10 09:36:58;;;;;;;0.20;0.20;;;6.80;88.00;;;;;;4860058;29;20034;-74
2024/03/10 09:39:23;;;;;;;0.25;0.25;;;6.80;87.90;;;;;;4860471;29;20033;-75
2024/03/10 09:41:51;;;;;;;0.10;0.10;;;6.90;87.80;;;;;;4861973;29;20089;-75
2024/03/10 09:44:18;;;;;;;0.30;0.30;;;6.90;87.90;;;;;;4859514;29;20044;-74
2024/03/10 09:46:49;;;;;;;0.25;0.25;;;7.10;87.60;;;;;;4861907;29;20068;-74
2024/03/10 09:49:20;;;;;;;0.20;0.20;;;7.10;87.70;;;;;;4862005;29;20089;-74
2024/03/10 09:51:49;;;;;;;0.20;0.20;;;7.00;87.40;;;;;;4860155;29;20029;-74
2024/03/10 09:54:17;;;;;;;0.20;0.20;;;7.10;87.60;;;;;;4862951;29;20120;-74
2024/03/10 09:56:47;;;;;;;0.13;0.13;;;7.20;87.70;;;;;;4861856;29;20041;-74
2024/03/10 09:59:22;;;;;;;0.20;0.20;;;7.30;87.00;;;;;;4860092;29;20074;-74
2024/03/10 10:01:50;;;;;;;0.20;0.20;;;7.40;87.10;;;;;;4860872;29;20030;-75
2024/03/10 10:04:19;;;;;;;0.20;0.20;;;7.60;87.60;;;;;;4860622;29;20030;-74
2024/03/10 10:06:46;;;;;;;0.10;0.10;;;7.70;87.10;;;;;;4862758;29;20025;-74
2024/03/10 10:09:11;;;;;;;0.20;0.20;;;7.70;86.10;;;;;;4857224;29;20033;-74
2024/03/10 10:11:38;;;;;;;0.10;0.10;;;7.70;86.80;;;;;;4863213;29;20025;-74
2024/03/10 10:14:15;;;;;;;0.20;0.20;;;7.80;86.50;;;;;;4842990;29;20390;-74
2024/03/10 10:16:55;;;;;;;0.17;0.17;;;7.80;86.60;;;;;;4845429;29;20048;-74
2024/03/10 10:19:22;;;;;;;0.10;0.10;;;7.80;86.50;;;;;;4859161;29;20116;-75
2024/03/10 10:21:47;;;;;;;0.20;0.20;;;7.90;86.70;;;;;;4861140;29;20125;-74
2024/03/10 10:24:15;;;;;;;0.20;0.20;;;7.90;86.70;;;;;;4861292;29;20112;-74
2024/03/10 10:26:41;;;;;;;0.17;0.17;;;8.10;86.60;;;;;;4845638;29;20151;-74
2024/03/10 10:29:09;;;;;;;0.15;0.15;;;8.00;86.50;;;;;;4859365;29;20147;-74
2024/03/10 10:31:38;;;;;;;0.10;0.10;;;8.10;85.80;;;;;;4862150;29;20078;-74
2024/03/10 10:34:13;;;;;;;0.10;0.10;;;8.20;86.20;;;;;;4844141;29;20025;-74
2024/03/10 10:36:38;;;;;;;0.17;0.17;;;8.20;85.60;;;;;;4862868;29;20047;-74
2024/03/10 10:39:09;;;;;;;0.10;0.10;;;8.20;85.70;;;;;;4861916;29;20447;-74
2024/03/10 10:41:37;;;;;;;0.20;0.20;;;8.20;85.50;;;;;;4861093;29;20078;-74
2024/03/10 10:44:06;;;;;;;0.10;0.10;;;8.20;86.20;;;;;;4844392;29;20066;-74
2024/03/10 10:46:36;;;;;;;0.20;0.20;;;8.30;86.20;;;;;;4861193;29;20030;-75
2024/03/10 10:49:05;;;;;;;0.20;0.20;;;8.30;86.20;;;;;;4857435;29;20026;-76
2024/03/10 10:51:34;;;;;;;0.10;0.10;;;8.20;85.60;;;;;;4862917;29;20521;-77
2024/03/10 10:54:07;;;;;;;0.20;0.20;;;8.30;86.20;;;;;;4844004;29;20119;-76
2024/03/10 10:56:33;;;;;;;0.10;0.10;;;8.40;86.00;;;;;;4842645;29;20045;-75
2024/03/10 10:59:00;;;;;;;0.10;0.10;;;8.60;86.20;;;;;;4859972;29;20056;-76
2024/03/10 11:01:25;;;;;;;0.10;0.10;;;8.70;85.90;;;;;;4846398;29;20029;-76
2024/03/10 11:03:54;;;;;;;0.10;0.10;;;8.70;85.90;;;;;;4856154;29;20158;-75
2024/03/10 11:06:19;;;;;;;0.20;0.20;;;8.80;85.90;;;;;;4856827;29;20026;-75
2024/03/10 11:08:49;;;;;;;0.15;0.15;;;8.90;85.60;;;;;;4861760;29;20030;-76
2024/03/10 11:11:44;;;;;;;0.17;0.17;;;9.10;85.80;;;;;;4861635;29;20406;-75
2024/03/10 11:14:11;;;;;;;0.10;0.10;;;9.20;84.90;;;;;;4854696;29;20048;-76
2024/03/10 11:16:39;;;;;;;0.20;0.20;;;9.40;84.70;;;;;;4858378;29;20498;-75
2024/03/10 11:19:21;;;;;;;0.20;0.20;;;9.40;83.80;;;;;;4861205;29;20030;-76
2024/03/10 11:21:50;;;;;;;0.10;0.10;;;9.60;83.90;;;;;;4858202;29;20053;-76
2024/03/10 11:24:22;;;;;;;0.20;0.20;;;9.80;83.20;;;;;;4859980;29;20041;-75
2024/03/10 11:27:08;;;;;;;0.10;0.10;;;10.10;83.60;;;;;;4856006;29;20386;-74
2024/03/10 11:29:37;;;;;;;0.20;0.20;;;10.30;82.00;;;;;;4858907;29;20565;-75
2024/03/10 11:32:03;;;;;;;0.10;0.10;;;10.30;82.00;;;;;;4856713;29;20055;-77
2024/03/10 11:34:30;;;;;;;0.13;0.13;;;10.30;82.80;;;;;;4843381;29;20525;-74
2024/03/10 11:36:57;;;;;;;0.10;0.10;;;10.00;82.40;;;;;;4864516;29;20435;-75
2024/03/10 11:39:23;;;;;;;0.10;0.10;;;9.80;82.50;;;;;;4856893;29;20557;-77
2024/03/10 11:42:14;;;;;;;0.10;0.10;;;9.70;82.60;;;;;;4863843;29;20078;-83
2024/03/10 11:44:40;;;;;;;0.10;0.10;;;9.60;82.30;;;;;;4862303;29;20037;-76
2024/03/10 11:47:11;;;;;;;0.20;0.20;;;9.50;83.00;;;;;;4864636;29;20391;-77
2024/03/10 11:49:37;;;;;;;0.20;0.20;;;9.50;82.90;;;;;;4860924;29;20485;-75
2024/03/10 11:52:07;;;;;;;0.10;0.10;;;9.50;83.00;;;;;;4865945;29;20030;-75
2024/03/10 11:54:35;;;;;;;0.10;0.10;;;9.60;83.10;;;;;;4850549;29;20026;-75
2024/03/10 11:57:01;;;;;;;0.10;0.10;;;9.60;82.70;;;;;;4836879;29;20070;-75
2024/03/10 11:59:26;;;;;;;0.10;0.10;;;9.50;83.10;;;;;;4868041;29;20022;-74
2024/03/10 12:01:53;;;;;;;0.10;0.10;;;9.50;83.10;;;;;;4862347;29;20036;-74
2024/03/10 12:04:19;;;;;;;0.20;0.20;;;9.50;83.20;;;;;;4853757;29;20033;-74
2024/03/10 12:06:46;;;;;;;0.10;0.10;;;9.60;83.30;;;;;;4864575;29;20442;-73
2024/03/10 12:09:20;;;;;;;0.10;0.10;;;9.80;83.00;;;;;;4855515;29;20114;-74
2024/03/10 12:11:46;;;;;;;0.10;0.10;;;10.00;83.00;;;;;;4847421;29;20112;-74
2024/03/10 12:14:12;;;;;;;0.20;0.20;;;10.10;83.00;;;;;;4853817;29;20125;-75
2024/03/10 12:16:47;;;;;;;0.15;0.15;;;10.20;82.60;;;;;;4861853;29;20045;-76
2024/03/10 12:19:14;;;;;;;0.20;0.20;;;10.30;82.70;;;;;;4853642;29;20030;-76
2024/03/10 12:21:39;;;;;;;0.10;0.10;;;10.30;82.20;;;;;;4830814;29;20037;-75
2024/03/10 12:24:06;;;;;;;0.10;0.10;;;10.30;82.70;;;;;;4846664;29;20557;-75
2024/03/10 12:26:35;;;;;;;0.10;0.10;;;10.40;83.10;;;;;;4846592;29;20202;-77
2024/03/10 12:29:01;;;;;;;0.10;0.10;;;10.50;83.10;;;;;;4847490;29;20049;-75
2024/03/10 12:31:27;;;;;;;0.10;0.10;;;10.50;82.80;;;;;;4843318;29;20061;-75
2024/03/10 12:33:55;;;;;;;0.10;0.10;;;10.50;82.70;;;;;;4857690;29;20057;-74
2024/03/10 12:36:21;;;;;;;0.10;0.10;;;10.50;82.00;;;;;;4858434;29;20402;-73
2024/03/10 12:38:47;;;;;;;0.10;0.10;;;10.40;82.10;;;;;;4860626;29;20036;-73
2024/03/10 12:41:13;;;;;;;0.20;0.20;;;10.40;82.70;;;;;;4860093;29;20716;-75
2024/03/10 12:43:45;;;;;;;0.10;0.10;;;10.50;82.60;;;;;;4839628;29;20040;-73
2024/03/10 12:46:17;;;;;;;0.10;0.10;;;10.60;82.70;;;;;;4858877;29;20030;-73
2024/03/10 12:48:47;;;;;;;0.10;0.10;;;10.60;83.10;;;;;;4853786;29;20022;-73
2024/03/10 12:51:16;;;;;;;0.10;0.10;;;10.70;83.00;;;;;;4855981;29;20302;-73
2024/03/10 12:53:42;;;;;;;0.20;0.20;;;10.80;82.60;;;;;;4858704;29;20026;-73
2024/03/10 12:56:15;;;;;;;0.20;0.20;;;10.80;82.60;;;;;;4843205;29;20040;-75
2024/03/10 12:58:43;;;;;;;0.10;0.10;;;10.90;82.40;;;;;;4855660;29;20086;-74
2024/03/10 13:01:09;;;;;;;0.10;0.10;;;10.90;82.10;;;;;;4854893;29;20033;-74
2024/03/10 13:03:35;;;;;;;0.10;0.10;;;10.90;81.70;;;;;;4862888;29;20085;-74
2024/03/10 13:06:04;;;;;;;0.10;0.10;;;11.10;82.40;;;;;;4863088;29;20034;-74
2024/03/10 13:08:30;;;;;;;0.10;0.10;;;11.10;82.20;;;;;;4859247;29;20661;-74
2024/03/10 13:10:56;;;;;;;0.13;0.13;;;11.20;82.40;;;;;;4862353;29;20109;-74
2024/03/10 13:13:23;;;;;;;0.10;0.10;;;11.30;81.90;;;;;;4845663;29;20063;-74
2024/03/10 13:15:50;;;;;;;0.10;0.10;;;11.50;81.40;;;;;;4856373;29;20064;-74
2024/03/10 13:18:16;;;;;;;0.10;0.10;;;11.50;80.80;;;;;;4861522;29;20098;-74
2024/03/10 13:20:43;;;;;;;0.10;0.10;;;11.70;80.60;;;;;;4849460;29;20041;-74
2024/03/10 13:23:10;;;;;;;0.10;0.10;;;11.70;79.60;;;;;;4827395;29;20036;-74
2024/03/10 13:25:35;;;;;;;0.10;0.10;;;11.70;79.50;;;;;;4852490;29;20072;-74
2024/03/10 13:28:01;;;;;;;0.10;0.10;;;11.70;78.90;;;;;;4857270;29;20025;-74
2024/03/10 13:30:27;;;;;;;0.10;0.10;;;11.80;79.30;;;;;;4839028;29;20071;-76
2024/03/10 13:32:53;;;;;;;0.10;0.10;;;11.80;78.80;;;;;;4862873;29;20030;-74
2024/03/10 13:35:19;;;;;;;0.10;0.10;;;11.80;77.80;;;;;;4863723;29;20089;-74
2024/03/10 13:37:46;;;;;;;0.10;0.10;;;11.80;79.40;;;;;;4844515;29;20541;-74
2024/03/10 13:40:13;;;;;;;0.10;0.10;;;11.80;79.10;;;;;;4863524;29;20037;-74
2024/03/10 13:42:46;;;;;;;0.10;0.10;;;11.70;79.20;;;;;;4858704;29;20037;-74
2024/03/10 13:45:14;;;;;;;0.10;0.10;;;11.60;78.90;;;;;;4846945;29;20036;-74
2024/03/10 13:47:40;;;;;;;0.10;0.10;;;11.60;79.10;;;;;;4862747;29;20052;-74
2024/03/10 13:50:09;;;;;;;0.10;0.10;;;11.70;79.00;;;;;;4861893;29;20032;-74
2024/03/10 13:52:38;;;;;;;0.15;0.15;;;11.80;78.90;;;;;;4859951;29;20227;-74
2024/03/10 13:55:06;;;;;;;0.10;0.10;;;11.80;79.60;;;;;;4846708;29;20076;-74
2024/03/10 13:57:32;;;;;;;0.10;0.10;;;12.00;78.70;;;;;;4846384;29;20105;-76
2024/03/10 13:59:57;;;;;;;0.10;0.10;;;11.90;78.40;;;;;;4860591;29;20064;-74
2024/03/10 14:02:23;;;;;;;0.10;0.10;;;12.00;78.30;;;;;;4861699;29;20435;-74
2024/03/10 14:04:49;;;;;;;0.10;0.10;;;12.00;76.90;;;;;;4857378;29;20643;-75
2024/03/10 14:07:15;;;;;;;0.10;0.10;;;12.00;76.90;;;;;;4845155;29;20387;-73
2024/03/10 14:09:45;;;;;;;0.10;0.10;;;12.00;77.50;;;;;;4845317;29;20105;-77
2024/03/10 14:12:11;;;;;;;0.10;0.10;;;12.00;77.30;;;;;;4862485;29;20033;-75
2024/03/10 14:14:42;;;;;;;0.10;0.10;;;12.00;77.00;;;;;;4858354;29;20057;-74
2024/03/10 14:17:08;;;;;;;0.10;0.10;;;12.00;76.40;;;;;;4855590;29;20049;-76
2024/03/10 14:19:34;;;;;;;0.10;0.10;;;12.00;77.00;;;;;;4844981;29;20022;-76
2024/03/10 14:21:59;;;;;;;0.10;0.10;;;12.10;77.30;;;;;;4847547;29;20553;-76
2024/03/10 14:24:25;;;;;;;0.10;0.10;;;12.00;76.60;;;;;;4862548;29;20041;-76
2024/03/10 14:26:56;;;;;;;0.10;0.10;;;12.20;77.90;;;;;;4856128;29;20030;-76
2024/03/10 14:29:25;;;;;;;0.13;0.13;;;12.20;76.80;;;;;;4862692;29;20036;-76
2024/03/10 14:31:50;;;;;;;0.10;0.10;;;12.30;76.60;;;;;;4856089;29;20057;-75
2024/03/10 14:34:16;;;;;;;0.10;0.10;;;12.30;76.90;;;;;;4857728;29;20399;-76
2024/03/10 14:36:42;;;;;;;0.10;0.10;;;12.40;76.80;;;;;;4861997;29;20536;-76
2024/03/10 14:39:08;;;;;;;0.10;0.10;;;12.50;76.90;;;;;;4856262;29;20041;-76
2024/03/10 14:41:35;;;;;;;0.10;0.10;;;12.50;76.50;;;;;;4847897;29;20030;-76
2024/03/10 14:44:01;;;;;;;0.10;0.10;;;12.60;76.40;;;;;;4854234;29;20497;-76
2024/03/10 14:46:28;;;;;;;0.10;0.10;;;12.70;75.90;;;;;;4853386;29;20092;-75
2024/03/10 14:48:54;;;;;;;0.10;0.10;;;12.80;74.20;;;;;;4858021;29;20029;-76
2024/03/10 14:51:20;;;;;;;0.10;0.10;;;12.80;75.80;;;;;;4858287;29;20037;-75
2024/03/10 14:53:49;;;;;;;0.10;0.10;;;12.90;74.50;;;;;;4861593;29;20045;-76
2024/03/10 14:56:15;;;;;;;0.10;0.10;;;13.00;75.20;;;;;;4859345;29;20109;-75
2024/03/10 14:58:41;;;;;;;0.20;0.20;;;13.10;75.30;;;;;;4861705;29;20026;-76
2024/03/10 15:01:07;;;;;;;0.10;0.10;;;12.90;74.40;;;;;;4854454;29;20056;-76
2024/03/10 15:03:33;;;;;;;0.10;0.10;;;12.90;74.20;;;;;;4858581;29;20121;-75
2024/03/10 15:05:59;;;;;;;0.10;0.10;;;12.90;74.50;;;;;;4862182;29;20065;-75
2024/03/10 15:08:25;;;;;;;0.10;0.10;;;12.90;74.40;;;;;;4857761;29;20034;-75
2024/03/10 15:10:56;;;;;;;0.10;0.10;;;12.80;73.50;;;;;;4844093;29;20029;-75
2024/03/10 15:13:22;;;;;;;0.10;0.10;;;12.80;74.10;;;;;;4863047;29;20044;-76
2024/03/10 15:15:48;;;;;;;0.10;0.10;;;12.80;73.90;;;;;;4865240;29;20565;-75
2024/03/10 15:18:15;;;;;;;0.10;0.10;;;12.80;71.90;;;;;;4860563;29;20693;-75
2024/03/10 15:20:44;;;;;;;0.10;0.10;;;12.60;72.00;;;;;;4861401;29;20113;-75
2024/03/10 15:23:13;;;;;;;0.10;0.10;;;12.70;74.30;;;;;;4841440;29;20509;-75
2024/03/10 15:25:40;;;;;;;0.10;0.10;;;12.70;74.30;;;;;;4862629;29;20659;-75
2024/03/10 15:28:06;;;;;;;0.10;0.10;;;12.60;73.70;;;;;;4866113;29;20045;-76
2024/03/10 15:30:33;;;;;;;0.10;0.10;;;12.60;73.50;;;;;;4850768;29;20101;-75
2024/03/10 15:32:59;;;;;;;0.10;0.10;;;12.50;73.40;;;;;;4864623;29;20378;-76
2024/03/10 15:35:25;;;;;;;0.00;0.00;;;12.40;73.10;;;;;;4858872;29;20173;-75
2024/03/10 15:37:51;;;;;;;0.10;0.10;;;12.30;73.60;;;;;;4862717;29;20066;-76
2024/03/10 15:40:18;;;;;;;0.10;0.10;;;12.20;74.70;;;;;;4865698;29;20061;-76
2024/03/10 15:42:46;;;;;;;0.10;0.10;;;12.10;74.00;;;;;;4858848;29;20045;-76
2024/03/10 15:45:13;;;;;;;0.10;0.10;;;12.00;74.70;;;;;;4861388;29;20490;-76
2024/03/10 15:47:40;;;;;;;0.00;0.00;;;11.90;74.60;;;;;;4860184;29;20504;-76
2024/03/10 15:50:09;;;;;;;0.10;0.10;;;11.80;74.90;;;;;;4860601;29;20109;-75
2024/03/10 15:52:38;;;;;;;0.10;0.10;;;11.80;74.90;;;;;;4868802;29;20034;-76
2024/03/10 15:55:05;;;;;;;0.10;0.10;;;11.70;74.40;;;;;;4862112;29;20045;-76
2024/03/10 15:57:32;;;;;;;0.10;0.10;;;11.60;75.50;;;;;;4846605;29;20057;-76
2024/03/10 15:59:58;;;;;;;0.10;0.10;;;11.70;74.60;;;;;;4855160;29;20055;-75
2024/03/10 16:02:24;;;;;;;0.10;0.10;;;11.60;75.50;;;;;;4865218;29;20029;-76
2024/03/10 16:04:52;;;;;;;0.10;0.10;;;11.60;74.70;;;;;;4860599;29;20029;-76
2024/03/10 16:07:18;;;;;;;0.10;0.10;;;11.70;75.20;;;;;;4858859;29;20532;-76
2024/03/10 16:09:45;;;;;;;0.10;0.10;;;11.70;75.70;;;;;;4865535;29;20068;-75
2024/03/10 16:12:13;;;;;;;0.10;0.10;;;11.70;74.30;;;;;;4861227;29;20097;-75
2024/03/10 16:14:40;;;;;;;0.10;0.10;;;11.70;75.20;;;;;;4863152;29;20029;-76
2024/03/10 16:17:10;;;;;;;0.10;0.10;;;11.70;75.20;;;;;;4839617;29;20053;-76
2024/03/10 16:19:42;;;;;;;0.10;0.10;;;11.60;75.20;;;;;;4862425;29;20025;-76
2024/03/10 16:22:12;;;;;;;0.10;0.10;;;11.60;74.80;;;;;;4857550;29;20115;-76
2024/03/10 16:24:40;;;;;;;0.10;0.10;;;11.50;74.30;;;;;;4858229;29;20417;-76
2024/03/10 16:27:07;;;;;;;0.10;0.10;;;11.60;75.10;;;;;;4860791;29;20418;-76
2024/03/10 16:29:33;;;;;;;0.10;0.10;;;11.60;74.60;;;;;;4851089;29;20096;-76
2024/03/10 16:31:58;;;;;;;0.10;0.10;;;11.50;74.90;;;;;;4862125;29;20502;-75
2024/03/10 16:34:26;;;;;;;0.10;0.10;;;11.50;74.90;;;;;;4861577;29;20439;-75
2024/03/10 16:36:52;;;;;;;0.10;0.10;;;11.50;74.80;;;;;;4860092;29;20120;-75
2024/03/10 16:39:22;;;;;;;0.10;0.10;;;11.40;74.40;;;;;;4857534;29;20025;-75
2024/03/10 16:41:48;;;;;;;0.10;0.10;;;11.40;74.50;;;;;;4845225;29;20033;-76
2024/03/10 16:44:14;;;;;;;0.10;0.10;;;11.40;76.00;;;;;;4863051;29;20040;-76
2024/03/10 16:46:40;;;;;;;0.10;0.10;;;11.30;75.20;;;;;;4840743;29;20041;-75
2024/03/10 16:49:06;;;;;;;0.10;0.10;;;11.40;77.00;;;;;;4861692;29;20438;-76
2024/03/10 16:51:32;;;;;;;0.10;0.10;;;11.30;76.30;;;;;;4855942;29;20074;-75
2024/03/10 16:53:58;;;;;;;0.10;0.10;;;11.40;77.30;;;;;;4852075;29;20029;-76
2024/03/10 16:56:24;;;;;;;0.10;0.10;;;11.30;77.20;;;;;;4864443;29;20061;-76
2024/03/10 16:58:51;;;;;;;0.10;0.10;;;11.40;77.70;;;;;;4857656;29;20097;-76
2024/03/10 17:01:17;;;;;;;0.10;0.10;;;11.30;77.50;;;;;;4864469;29;20025;-75
2024/03/10 17:03:43;;;;;;;0.10;0.10;;;11.20;77.20;;;;;;4865631;29;20046;-76
2024/03/10 17:06:09;;;;;;;0.10;0.10;;;11.20;77.50;;;;;;4868099;29;20111;-75
2024/03/10 17:08:39;;;;;;;0.10;0.10;;;11.20;78.10;;;;;;4857505;29;20030;-75
2024/03/10 17:11:05;;;;;;;0.10;0.10;;;11.10;78.40;;;;;;4850034;29;20029;-77
2024/03/10 17:13:31;;;;;;;0.10;0.10;;;11.10;78.50;;;;;;4863175;29;20112;-76
2024/03/10 17:15:59;;;;;;;0.10;0.10;;;11.00;78.30;;;;;;4856617;29;20038;-76
2024/03/10 17:18:24;;;;;;;0.10;0.10;;;10.90;78.20;;;;;;4863635;29;20045;-78
2024/03/10 17:20:51;;;;;;;0.10;0.10;;;10.80;78.40;;;;;;4851975;29;20685;-76
2024/03/10 17:23:17;;;;;;;0.10;0.10;;;10.80;78.40;;;;;;4858948;29;20049;-76
2024/03/10 17:25:43;;;;;;;0.10;0.10;;;10.80;79.20;;;;;;4851525;29;20059;-77
2024/03/10 17:28:08;;;;;;;0.10;0.10;;;10.80;80.00;;;;;;4851591;29;20029;-76
2024/03/10 17:30:35;;;;;;;0.10;0.10;;;10.80;79.70;;;;;;4862950;29;20053;-76
2024/03/10 17:33:01;;;;;;;0.10;0.10;;;10.80;79.50;;;;;;4832208;29;20393;-75
2024/03/10 17:35:27;;;;;;;0.10;0.10;;;10.70;78.50;;;;;;4846232;29;20040;-75
2024/03/10 17:37:53;;;;;;;0.10;0.10;;;10.70;78.70;;;;;;4862757;29;20025;-76
2024/03/10 17:40:27;;;;;;;0.10;0.10;;;10.60;77.40;;;;;;4856682;29;20041;-79
2024/03/10 17:42:53;;;;;;;0.10;0.10;;;10.60;78.40;;;;;;4846437;29;20393;-76
2024/03/10 17:45:19;;;;;;;0.00;0.00;;;10.40;77.70;;;;;;4858419;29;20459;-76
2024/03/10 17:47:44;;;;;;;0.10;0.10;;;10.30;78.50;;;;;;4853450;29;20069;-76
2024/03/10 17:50:11;;;;;;;0.10;0.10;;;10.30;79.10;;;;;;4861113;29;20025;-76
2024/03/10 17:52:37;;;;;;;0.10;0.10;;;10.20;79.50;;;;;;4843076;29;20038;-75
2024/03/10 17:55:06;;;;;;;0.10;0.10;;;10.10;79.60;;;;;;4858921;29;20033;-77
2024/03/10 17:57:35;;;;;;;0.00;0.00;;;10.00;79.90;;;;;;4842235;29;20029;-77
2024/03/10 18:00:04;;;;;;;0.10;0.10;;;10.00;81.00;;;;;;4851620;29;20030;-79
2024/03/10 18:02:30;;;;;;;0.10;0.10;;;9.90;81.20;;;;;;4859583;29;20029;-78
2024/03/10 18:04:58;;;;;;;0.10;0.10;;;9.80;81.80;;;;;;4843822;29;20030;-78
2024/03/10 18:07:24;;;;;;;0.10;0.10;;;9.80;82.00;;;;;;4845362;29;20025;-78
2024/03/10 18:09:50;;;;;;;0.10;0.10;;;9.70;82.70;;;;;;4856656;29;20114;-77
2024/03/10 18:12:16;;;;;;;0.10;0.10;;;9.70;83.00;;;;;;4837570;29;20570;-76
2024/03/10 18:14:41;;;;;;;0.10;0.10;;;9.80;83.20;;;;;;4852843;29;20033;-76
2024/03/10 18:17:10;;;;;;;0.03;0.03;;;9.70;82.70;;;;;;4829163;29;20124;-75
2024/03/10 18:19:36;;;;;;;0.10;0.10;;;9.70;83.20;;;;;;4858835;29;20030;-74
2024/03/10 18:22:01;;;;;;;0.10;0.10;;;9.70;83.40;;;;;;4856312;29;20037;-78
2024/03/10 18:24:29;;;;;;;0.10;0.10;;;9.70;83.70;;;;;;4857740;29;20089;-76
2024/03/10 18:26:55;;;;;;;0.10;0.10;;;9.70;84.00;;;;;;4855868;29;20060;-79
2024/03/10 18:29:20;;;;;;;0.10;0.10;;;9.60;84.00;;;;;;4845107;29;20026;-79